Gladstone, Virginia
Current Conditions -  °F | °C
As of 3:19 AM on Monday 22 Dec 2014 (Local Time) from KLYH Reporting Station
Overcast Overcast  
Wind Chill: -1°   Ceiling: 3100
Heat Index:   Visibility: 10mi
Dew Point: -2°   Wind: 7mph
Humidity: 73%   Direction: 40°NE
Pressure: 30.23"   Gusts: NA
Location:  37.55°N, 78.85°W
Report Text: KLYH 220819Z AUTO 04006KT 10SM OVC031 02/M02 A3023 RMK AO2 T00221022
Loading
Personal Weather Stations






























Interactive Weather Map New forecast layout! Learn more

10-Day Weather Forecast

Advertisements
Track Severe Weather on mobile